Time;durP1;ratioP1;P1;durP2;ratioP2;P2;SDS_P1;SDS_P2;PMS_P1;PMS_P2;Temp;Humidity;BMP_temperature;BMP_pressure;BME280_temperature;BME280_humidity;BME280_pressure;Samples;Min_cycle;Max_cycle;Signal;HPM_P1;HPM_P2
2022/07/10 00:02:20;;;;;;;1999.90;999.90;;;;;;;14.50;100.00;99719.97;5041497;28;20055;-52
2022/07/10 00:05:05;;;;;;;1999.90;999.90;;;;;;;14.61;100.00;99725.63;5040927;28;20052;-53
2022/07/10 00:07:50;;;;;;;1999.90;999.90;;;;;;;14.70;100.00;99721.75;5042823;28;20064;-53
2022/07/10 00:10:36;;;;;;;1999.90;999.90;;;;;;;14.67;100.00;99724.53;5041284;28;20389;-52
2022/07/10 00:13:20;;;;;;;1999.90;999.90;;;;;;;14.70;100.00;99721.75;5040392;28;20056;-53
2022/07/10 00:16:05;;;;;;;1999.90;999.90;;;;;;;14.69;100.00;99720.91;5040656;28;20052;-53
2022/07/10 00:18:50;;;;;;;1999.90;999.90;;;;;;;14.59;100.00;99722.22;5038290;28;20059;-53
2022/07/10 00:21:34;;;;;;;1999.90;999.90;;;;;;;14.44;100.00;99728.97;5039753;28;20053;-54
2022/07/10 00:24:18;;;;;;;1999.90;999.90;;;;;;;14.57;100.00;99728.47;5045039;28;20106;-52
2022/07/10 00:27:04;;;;;;;1999.90;999.90;;;;;;;14.38;100.00;99726.59;5045065;28;20056;-53
2022/07/10 00:29:48;;;;;;;1999.90;999.90;;;;;;;14.44;100.00;99733.38;5044805;28;20056;-52
2022/07/10 00:32:33;;;;;;;1999.90;999.90;;;;;;;14.30;100.00;99723.44;5044856;28;20067;-53
2022/07/10 00:35:17;;;;;;;1999.90;999.90;;;;;;;14.29;100.00;99726.13;5042946;28;20492;-54
2022/07/10 00:38:01;;;;;;;1999.90;999.90;;;;;;;14.47;100.00;99712.19;5043324;28;20090;-53
2022/07/10 00:40:45;;;;;;;1999.90;999.90;;;;;;;14.35;100.00;99712.69;5044001;28;20041;-53
2022/07/10 00:43:51;;;;;;;1999.90;999.90;;;;;;;14.20;100.00;99711.53;5045971;28;20411;-54
2022/07/10 00:46:35;;;;;;;1999.90;999.90;;;;;;;14.32;100.00;99711.03;5042951;28;20040;-54
2022/07/10 00:49:19;;;;;;;1999.90;999.90;;;;;;;14.00;100.00;99718.47;5044763;28;20048;-54
2022/07/10 00:52:10;;;;;;;1999.90;999.90;;;;;;;14.21;100.00;99724.66;5044174;28;20515;-53
2022/07/10 00:54:55;;;;;;;1999.90;999.90;;;;;;;14.07;100.00;99713.84;5045118;28;20064;-54
2022/07/10 00:57:40;;;;;;;1999.90;999.90;;;;;;;14.14;100.00;99710.03;5045472;28;20403;-53
2022/07/10 01:00:26;;;;;;;1999.90;999.90;;;;;;;13.97;100.00;99699.31;5043071;28;20103;-52
2022/07/10 01:03:10;;;;;;;1999.90;999.90;;;;;;;13.85;100.00;99703.31;5041386;28;20502;-51
2022/07/10 01:05:54;;;;;;;1999.90;999.90;;;;;;;13.84;100.00;99708.63;5045952;28;20055;-54
2022/07/10 01:08:39;;;;;;;1999.90;999.90;;;;;;;13.70;100.00;99696.88;5043549;28;20110;-54
2022/07/10 01:11:23;;;;;;;1999.90;999.90;;;;;;;13.76;100.00;99693.16;5042215;28;20426;-52
2022/07/10 01:14:08;;;;;;;1999.90;999.90;;;;;;;13.80;100.00;99707.91;5046127;28;20059;-54
2022/07/10 01:16:53;;;;;;;1999.90;999.90;;;;;;;13.77;100.00;99697.50;5044133;28;20079;-55
2022/07/10 01:19:37;;;;;;;1999.90;999.90;;;;;;;13.79;100.00;99683.34;5045002;28;20099;-52
2022/07/10 01:22:22;;;;;;;1999.90;999.90;;;;;;;13.64;100.00;99696.25;5040076;28;20717;-52
2022/07/10 01:25:07;;;;;;;1999.90;999.90;;;;;;;13.70;100.00;99696.03;5040631;28;20507;-53
2022/07/10 01:27:52;;;;;;;1999.90;999.90;;;;;;;13.85;100.00;99690.16;5039466;28;20103;-53
2022/07/10 01:30:36;;;;;;;1999.90;999.90;;;;;;;13.80;100.00;99703.47;5041318;28;20546;-52
2022/07/10 01:33:21;;;;;;;1999.90;999.90;;;;;;;13.66;100.00;99708.44;5040927;28;20098;-52
2022/07/10 01:36:05;;;;;;;1999.90;999.90;;;;;;;13.68;100.00;99708.38;5040593;28;20048;-54
2022/07/10 01:38:54;;;;;;;1999.90;999.90;;;;;;;13.65;100.00;99705.84;5041695;28;20080;-52
2022/07/10 01:41:39;;;;;;;1999.90;999.90;;;;;;;13.70;100.00;99711.81;5038835;28;20052;-53
2022/07/10 01:44:24;;;;;;;1999.90;999.90;;;;;;;13.60;100.00;99706.06;5039987;28;20052;-53
2022/07/10 01:47:09;;;;;;;1999.90;999.90;;;;;;;13.60;100.00;99707.84;5040261;28;20527;-55
2022/07/10 01:49:54;;;;;;;1999.90;999.90;;;;;;;13.64;100.00;99702.38;5040382;28;20049;-54
2022/07/10 01:52:38;;;;;;;1999.90;999.90;;;;;;;13.41;100.00;99705.91;5040226;28;20057;-53
2022/07/10 01:55:22;;;;;;;1999.90;999.90;;;;;;;13.48;100.00;99704.75;5041291;28;20156;-52
2022/07/10 01:58:07;;;;;;;1999.90;999.90;;;;;;;13.53;100.00;99702.81;5041396;28;20388;-54
2022/07/10 02:00:52;;;;;;;1999.90;999.90;;;;;;;13.45;100.00;99710.13;5039221;28;20087;-52
2022/07/10 02:06:39;;;;;;;1999.90;999.90;;;;;;;13.49;100.00;99706.47;5042301;28;20055;-53
2022/07/10 02:09:24;;;;;;;1999.90;999.90;;;;;;;13.49;100.00;99708.25;5044493;28;20045;-54
2022/07/10 02:12:10;;;;;;;1999.90;999.90;;;;;;;13.57;100.00;99700.91;5042588;28;20048;-54
2022/07/10 02:14:59;;;;;;;1999.90;999.90;;;;;;;13.59;100.00;99706.13;5042085;28;20060;-53
2022/07/10 02:17:43;;;;;;;1999.90;999.90;;;;;;;13.53;100.00;99710.69;5044765;28;20052;-54
2022/07/10 02:20:28;;;;;;;1999.90;999.90;;;;;;;13.67;100.00;99704.88;5043332;28;20037;-54
2022/07/10 02:23:14;;;;;;;1999.90;999.90;;;;;;;13.72;100.00;99705.56;5042892;28;20048;-54
2022/07/10 02:25:58;;;;;;;1999.90;999.90;;;;;;;13.67;100.00;99701.41;5041917;28;20045;-52
2022/07/10 02:28:43;;;;;;;1999.90;999.90;;;;;;;13.56;100.00;99700.06;5045753;28;20051;-52
2022/07/10 02:31:28;;;;;;;1999.90;999.90;;;;;;;13.70;100.00;99715.31;5044026;28;20053;-53
2022/07/10 02:34:14;;;;;;;1999.90;999.90;;;;;;;13.61;100.00;99705.13;5043179;28;20049;-52
2022/07/10 02:36:58;;;;;;;1999.90;999.90;;;;;;;13.61;100.00;99706.91;5042713;28;20045;-54
2022/07/10 02:39:43;;;;;;;1999.90;999.90;;;;;;;13.61;100.00;99706.91;5044857;28;20388;-55
2022/07/10 02:42:28;;;;;;;1999.90;999.90;;;;;;;13.59;100.00;99703.50;5044967;28;20079;-53
2022/07/10 02:45:13;;;;;;;1999.90;999.90;;;;;;;13.53;100.00;99710.69;5044841;28;20106;-54
2022/07/10 02:47:58;;;;;;;1999.90;999.90;;;;;;;13.45;100.00;99704.84;5044574;28;20056;-54
2022/07/10 02:50:43;;;;;;;1999.90;999.90;;;;;;;13.49;100.00;99709.09;5044055;28;20645;-53
2022/07/10 02:53:27;;;;;;;1999.90;999.90;;;;;;;13.45;100.00;99704.84;5042339;28;20548;-54
2022/07/10 02:56:12;;;;;;;1999.90;999.90;;;;;;;13.28;100.00;99709.91;5044289;28;20141;-55
2022/07/10 02:58:57;;;;;;;1999.90;999.90;;;;;;;13.42;100.00;99712.00;5039321;28;20100;-54
2022/07/10 03:01:42;;;;;;;1999.90;999.90;;;;;;;13.32;100.00;99725.53;5042547;28;20041;-52
2022/07/10 03:04:27;;;;;;;1999.90;999.90;;;;;;;13.36;100.00;99717.50;5041147;28;20400;-53
2022/07/10 03:07:13;;;;;;;1999.90;999.90;;;;;;;13.36;100.00;99721.03;5041412;28;20073;-54
2022/07/10 03:09:59;;;;;;;1999.90;999.90;;;;;;;13.25;100.00;99718.78;5033054;28;20048;-52
2022/07/10 03:12:44;;;;;;;1999.90;999.90;;;;;;;13.30;100.00;99727.34;5039922;28;20069;-51
2022/07/10 03:15:29;;;;;;;1999.90;999.90;;;;;;;13.40;100.00;99724.38;5042042;28;20052;-52
2022/07/10 03:18:14;;;;;;;1999.90;999.90;;;;;;;13.40;100.00;99724.38;5042447;28;20056;-51
2022/07/10 03:20:59;;;;;;;1999.90;999.90;;;;;;;13.47;100.00;99729.34;5045958;28;20124;-53
2022/07/10 03:23:43;;;;;;;1999.90;999.90;;;;;;;13.42;100.00;99723.41;5041804;28;20050;-52
2022/07/10 03:26:29;;;;;;;1999.90;999.90;;;;;;;13.29;100.00;99724.78;5043297;28;20569;-53
2022/07/10 03:29:13;;;;;;;1999.90;999.90;;;;;;;13.39;100.00;99720.91;5039900;28;20057;-54
2022/07/10 03:31:57;;;;;;;1999.90;999.90;;;;;;;13.33;100.00;99721.13;5041327;28;20590;-55
2022/07/10 03:34:42;;;;;;;1999.90;999.90;;;;;;;13.26;100.00;99724.91;5043662;28;20142;-52
2022/07/10 03:37:27;;;;;;;1999.90;999.90;;;;;;;13.16;100.00;99720.84;5042935;28;20989;-53
2022/07/10 03:40:11;;;;;;;1999.90;999.90;;;;;;;13.10;100.00;99719.31;5039736;28;20041;-54
2022/07/10 03:42:55;;;;;;;1999.90;999.90;;;;;;;12.94;100.00;99718.16;5042069;28;20110;-53
2022/07/10 03:45:40;;;;;;;1999.90;999.90;;;;;;;12.97;100.00;99718.91;5043267;28;20055;-53
2022/07/10 03:48:25;;;;;;;1999.90;999.90;;;;;;;13.03;100.00;99720.44;5043721;28;20051;-53
2022/07/10 03:51:09;;;;;;;1999.90;999.90;;;;;;;13.06;100.00;99721.22;5042135;28;20427;-54
2022/07/10 03:53:54;;;;;;;1999.90;999.90;;;;;;;12.83;100.00;99714.13;5044355;28;20064;-52
2022/07/10 03:59:42;;;;;;;1999.90;999.90;;;;;;;12.94;100.00;99713.75;5043120;28;20091;-52
2022/07/10 04:02:26;;;;;;;1999.90;999.90;;;;;;;13.28;100.00;99709.91;5043598;28;20106;-53
2022/07/10 04:05:11;;;;;;;1999.90;999.90;;;;;;;13.19;100.00;99710.22;5041762;28;20084;-53
2022/07/10 04:07:56;;;;;;;1999.90;999.90;;;;;;;13.54;100.00;99719.44;5043087;28;20653;-52
2022/07/10 04:10:40;;;;;;;1999.90;999.90;;;;;;;13.63;100.00;99715.59;5042370;28;20040;-54
2022/07/10 04:13:25;;;;;;;1999.90;999.90;;;;;;;13.42;100.00;99720.78;5045390;28;20527;-53
2022/07/10 04:16:12;;;;;;;1999.90;999.90;;;;;;;13.27;100.00;99719.59;5043230;28;20044;-52
2022/07/10 04:18:57;;;;;;;1999.90;999.90;;;;;;;13.08;100.00;99722.00;5042850;28;20539;-53
2022/07/10 04:21:41;;;;;;;1999.90;999.90;;;;;;;13.07;100.00;99724.69;5044731;28;20411;-51
2022/07/10 04:24:26;;;;;;;1999.90;999.90;;;;;;;12.99;100.00;99730.22;5044373;28;20054;-51
2022/07/10 04:27:10;;;;;;;1999.90;999.90;;;;;;;13.21;100.00;99732.06;5043655;28;20380;-54
2022/07/10 04:29:55;;;;;;;1999.90;999.90;;;;;;;13.42;100.00;99717.28;5041864;28;20107;-54
2022/07/10 04:32:39;;;;;;;1999.90;999.90;;;;;;;13.33;100.00;99726.41;5043515;28;20553;-52
2022/07/10 04:35:24;;;;;;;1999.90;999.90;;;;;;;13.10;100.00;99721.97;5040915;28;20090;-51
2022/07/10 04:38:08;;;;;;;1999.90;999.90;;;;;;;12.99;100.00;99718.84;5041892;28;20080;-54
2022/07/10 04:40:53;;;;;;;1999.90;999.90;;;;;;;13.21;100.00;99714.50;5046952;28;20053;-52
2022/07/10 04:43:37;;;;;;;1999.90;999.90;;;;;;;13.37;100.00;99722.72;5047395;28;20118;-52
2022/07/10 04:46:22;;;;;;;1999.90;999.90;;;;;;;13.43;100.00;99719.88;5046388;28;20072;-52
2022/07/10 04:49:06;;;;;;;1999.90;999.90;;;;;;;13.73;100.00;99727.50;5046089;28;20085;-52
2022/07/10 04:51:51;;;;;;;1999.90;999.90;;;;;;;13.88;100.00;99720.78;5046513;28;20049;-53
2022/07/10 04:54:35;;;;;;;1999.90;999.90;;;;;;;14.34;100.00;99716.25;5045500;28;21342;-52
2022/07/10 04:57:19;;;;;;;1999.90;999.90;;;;;;;14.24;100.00;99718.41;5044625;28;20459;-52
2022/07/10 05:00:04;;;;;;;1999.90;999.90;;;;;;;14.33;100.00;99709.25;5043156;28;20080;-53
2022/07/10 05:02:49;;;;;;;1999.90;999.90;;;;;;;13.74;100.00;99716.88;5043015;28;20033;-52
2022/07/10 05:05:34;;;;;;;1999.90;999.90;;;;;;;13.90;100.00;99705.75;5044591;28;20041;-53
2022/07/10 05:08:19;;;;;;;1999.90;999.90;;;;;;;14.21;100.00;99713.28;5044161;28;20048;-52
2022/07/10 05:11:03;;;;;;;1999.90;999.90;;;;;;;14.90;100.00;99723.53;5044780;28;20511;-54
2022/07/10 05:13:48;;;;;;;1999.90;999.90;;;;;;;15.36;100.00;99711.75;5041446;28;20052;-52
2022/07/10 05:16:32;;;;;;;1999.90;999.90;;;;;;;15.86;100.00;99720.91;5042781;28;20053;-51
2022/07/10 05:19:17;;;;;;;1999.90;999.90;;;;;;;15.07;100.00;99710.44;5042285;28;20054;-54
2022/07/10 05:22:01;;;;;;;1999.90;999.90;;;;;;;14.85;100.00;99707.91;5042510;28;20056;-53
2022/07/10 05:24:46;;;;;;;1999.90;999.90;;;;;;;14.31;100.00;99716.38;5042126;28;20060;-53
2022/07/10 05:27:30;;;;;;;1999.90;999.90;;;;;;;14.63;100.00;99715.06;5044954;28;20049;-53
2022/07/10 05:30:14;;;;;;;1999.90;999.90;;;;;;;14.34;100.00;99725.00;5041499;28;20044;-53
2022/07/10 05:32:59;;;;;;;1999.90;999.90;;;;;;;14.83;100.00;99724.72;5043478;28;20041;-53
2022/07/10 05:35:44;;;;;;;1999.90;999.90;;;;;;;15.07;100.00;99728.91;5039782;28;20041;-51
2022/07/10 05:38:28;;;;;;;1999.90;999.90;;;;;;;15.08;100.00;99729.75;5043655;28;20049;-52
2022/07/10 05:41:13;;;;;;;1999.90;999.90;;;;;;;15.43;100.00;99725.50;5045959;28;20052;-53
2022/07/10 05:43:59;;;;;;;1999.90;999.90;;;;;;;15.81;100.00;99734.31;5045882;28;20091;-54
2022/07/10 05:46:44;;;;;;;1999.90;999.90;;;;;;;15.07;100.00;99730.69;5043655;28;20398;-51
2022/07/10 05:49:28;;;;;;;1999.90;999.90;;;;;;;14.81;100.00;99735.31;5046412;28;20059;-54
2022/07/10 05:52:13;;;;;;;1999.90;999.90;;;;;;;15.07;100.00;99728.91;5049210;28;20049;-52
2022/07/10 05:54:57;;;;;;;1999.90;999.90;;;;;;;14.62;100.00;99726.50;5045314;28;20065;-51
2022/07/10 05:57:42;;;;;;;1999.90;999.90;;;;;;;15.04;100.00;99726.41;5048244;28;20042;-52
2022/07/10 06:00:26;;;;;;;1999.90;999.90;;;;;;;14.94;100.00;99728.59;5047358;28;20067;-51
2022/07/10 06:03:11;;;;;;;1999.90;999.90;;;;;;;15.30;100.00;99735.78;5047281;28;20045;-54
2022/07/10 06:05:55;;;;;;;1999.90;999.90;;;;;;;15.19;100.00;99727.50;5045969;28;20142;-53
2022/07/10 06:08:40;;;;;;;1999.90;999.90;;;;;;;15.01;100.00;99729.16;5047114;28;20052;-53
2022/07/10 06:11:25;;;;;;;1999.90;999.90;;;;;;;14.88;100.00;99726.25;5045846;28;20392;-53
2022/07/10 06:14:10;;;;;;;1999.90;999.90;;;;;;;15.03;100.00;99732.59;5046144;28;20183;-52
2022/07/10 06:16:54;;;;;;;1999.90;999.90;;;;;;;14.67;100.00;99720.09;5045985;28;20037;-51
2022/07/10 06:19:38;;;;;;;1999.90;999.90;;;;;;;15.36;100.00;99726.72;5046261;28;20053;-53
2022/07/10 06:22:32;;;;;;;1999.90;999.90;;;;;;;15.53;100.00;99718.03;5048770;28;20114;-52
2022/07/10 06:25:16;;;;;;;1999.90;999.90;;;;;;;15.75;100.00;99724.03;5045214;28;20049;-53
2022/07/10 06:28:01;;;;;;;1999.90;999.90;;;;;;;15.47;100.00;99713.03;5047018;28;20095;-52
2022/07/10 06:30:46;;;;;;;1999.90;999.90;;;;;;;15.20;100.00;99706.31;5046464;28;20495;-53
2022/07/10 06:33:32;;;;;;;1999.90;999.90;;;;;;;15.65;100.00;99714.81;5045576;28;20128;-53
2022/07/10 06:36:16;;;;;;;1999.90;999.90;;;;;;;15.53;100.00;99712.75;5045481;28;20110;-52
2022/07/10 06:39:01;;;;;;;1999.90;999.90;;;;;;;16.33;100.00;99707.97;5046779;28;20052;-52
2022/07/10 06:41:45;;;;;;;1999.90;999.90;;;;;;;16.10;100.00;99703.84;5041883;28;20063;-52
2022/07/10 06:44:30;;;;;;;1999.90;999.90;;;;;;;16.08;100.00;99710.13;5043859;28;20060;-53
2022/07/10 06:50:22;;;;;;;1999.90;999.90;;;;;;;16.34;100.00;99716.75;5044385;28;20080;-53
2022/07/10 06:53:07;;;;;;;1999.90;999.90;;;;;;;16.15;100.00;99710.69;5043499;28;20060;-52
2022/07/10 06:55:51;;;;;;;1999.90;999.90;;;;;;;16.01;100.00;99706.06;5044402;28;20116;-51
2022/07/10 06:58:36;;;;;;;1999.90;999.90;;;;;;;15.64;100.00;99716.59;5044460;28;20044;-51
2022/07/10 07:01:21;;;;;;;1999.90;999.90;;;;;;;15.49;100.00;99709.41;5043835;28;20047;-54
2022/07/10 07:04:05;;;;;;;1999.90;999.90;;;;;;;15.54;100.00;99717.97;5044649;28;20079;-52
2022/07/10 07:06:50;;;;;;;1999.90;999.90;;;;;;;15.75;100.00;99718.75;5043028;28;20087;-52
2022/07/10 07:09:34;;;;;;;1999.90;999.90;;;;;;;15.62;100.00;99721.09;5044044;28;20049;-52
2022/07/10 07:12:19;;;;;;;1999.90;999.90;;;;;;;15.37;100.00;99724.03;5042284;28;20045;-53
2022/07/10 07:15:04;;;;;;;1999.90;999.90;;;;;;;15.62;100.00;99720.22;5042721;28;20084;-51
2022/07/10 07:18:07;;;;;;;1999.90;999.90;;;;;;;16.12;100.00;99723.13;5040880;28;20555;-51
2022/07/10 07:23:55;;;;;;;1999.90;999.90;;;;;;;15.77;100.00;99718.69;5041866;28;20094;-52
2022/07/10 07:26:40;;;;;;;1999.90;999.90;;;;;;;15.68;100.00;99716.50;5045208;28;20058;-52
2022/07/10 07:29:24;;;;;;;1999.90;999.90;;;;;;;15.51;100.00;99714.63;5045441;28;20134;-52
2022/07/10 07:32:08;;;;;;;1999.90;999.90;;;;;;;15.75;100.00;99712.63;5044799;28;20049;-52
2022/07/10 07:34:53;;;;;;;1999.90;999.90;;;;;;;16.62;100.00;99710.09;5044378;28;20083;-53
2022/07/10 07:37:42;;;;;;;1999.90;999.90;;;;;;;16.29;100.00;99717.00;5044631;28;20057;-51
2022/07/10 07:40:27;;;;;;;1999.90;999.90;;;;;;;15.92;100.00;99722.38;5046177;28;20056;-54
2022/07/10 07:43:11;;;;;;;1999.90;999.90;;;;;;;15.32;100.00;99719.88;5045570;28;20110;-53
2022/07/10 07:45:56;;;;;;;1999.90;999.90;;;;;;;15.40;100.00;99728.28;5045474;28;20079;-51
2022/07/10 07:48:41;;;;;;;1999.90;999.90;;;;;;;15.11;100.00;99727.84;5041205;28;20472;-51
2022/07/10 07:51:25;;;;;;;1999.90;999.90;;;;;;;15.06;100.00;99723.69;5043911;28;20048;-53
2022/07/10 07:54:10;;;;;;;1999.90;999.90;;;;;;;15.36;100.00;99729.38;5047921;28;20114;-52
2022/07/10 07:56:54;;;;;;;1999.90;999.90;;;;;;;14.91;100.00;99741.91;5043390;28;20136;-53
2022/07/10 07:59:39;;;;;;;1999.90;999.90;;;;;;;14.55;100.00;99749.63;5045785;28;20052;-52
2022/07/10 08:02:24;;;;;;;1999.90;999.90;;;;;;;14.58;100.00;99738.09;5046373;28;20067;-52
2022/07/10 08:05:09;;;;;;;1999.90;999.90;;;;;;;14.38;100.00;99731.84;5043316;28;20087;-53
2022/07/10 08:07:55;;;;;;;1999.90;999.90;;;;;;;14.24;100.00;99729.81;5044878;28;20083;-53
2022/07/10 08:10:40;;;;;;;1999.90;999.90;;;;;;;14.79;100.00;99736.34;5044401;28;20503;-53
2022/07/10 08:13:24;;;;;;;1999.90;999.90;;;;;;;15.03;100.00;99737.03;5043392;28;20218;-53
2022/07/10 08:16:09;;;;;;;1999.90;999.90;;;;;;;15.23;100.00;99728.22;5043571;28;20056;-54
2022/07/10 08:18:54;;;;;;;1999.90;999.90;;;;;;;15.69;100.00;99731.41;5043801;28;20191;-53
2022/07/10 08:21:39;;;;;;;1999.90;999.90;;;;;;;16.03;100.00;99720.09;5044021;28;20400;-53
2022/07/10 08:24:24;;;;;;;1999.90;999.90;;;;;;;16.74;100.00;99712.94;5042217;28;20043;-53
2022/07/10 08:27:08;;;;;;;1999.90;999.90;;;;;;;17.20;100.00;99715.84;5044761;28;20471;-53
2022/07/10 08:29:53;;;;;;;1999.90;999.90;;;;;;;17.14;100.00;99710.88;5046843;28;20637;-53
2022/07/10 08:32:39;;;;;;;1999.90;999.90;;;;;;;18.21;100.00;99706.72;5044379;28;20419;-52
2022/07/10 08:35:23;;;;;;;1999.90;999.90;;;;;;;17.80;100.00;99715.22;5045261;28;20383;-51
2022/07/10 08:38:08;;;;;;;1999.90;999.90;;;;;;;17.34;100.00;99720.38;5044887;28;20033;-52
2022/07/10 08:40:57;;;;;;;1999.90;999.90;;;;;;;17.88;100.00;99710.34;5027208;28;20052;-51
2022/07/10 08:43:42;;;;;;;1999.90;999.90;;;;;;;17.05;100.00;99714.84;5041773;28;20442;-54
2022/07/10 08:46:27;;;;;;;1999.90;999.90;;;;;;;17.74;100.00;99713.75;5044133;28;20044;-54
2022/07/10 08:49:13;;;;;;;1999.90;999.90;;;;;;;17.52;100.00;99718.53;5043592;28;20056;-56
2022/07/10 08:52:04;;;;;;;1999.90;999.90;;;;;;;18.18;100.00;99712.19;5043567;28;20036;-53
2022/07/10 08:54:50;;;;;;;1999.90;999.90;;;;;;;17.26;100.00;99719.97;5043277;28;20124;-52
2022/07/10 08:57:35;;;;;;;1999.90;999.90;;;;;;;16.59;100.00;99714.59;5044555;28;20072;-52
2022/07/10 09:00:20;;;;;;;1999.90;999.90;;;;;;;16.45;100.00;99724.16;5043209;28;20878;-53
2022/07/10 09:03:05;;;;;;;1999.90;999.90;;;;;;;16.13;100.00;99723.97;5042156;28;20056;-53
2022/07/10 09:05:51;;;;;;;1999.90;999.90;;;;;;;16.36;100.00;99731.59;5043758;28;20099;-51
2022/07/10 09:08:37;;;;;;;1999.90;999.90;;;;;;;16.63;100.00;99725.00;5045050;28;20499;-52
2022/07/10 09:11:23;;;;;;;1999.90;999.90;;;;;;;16.88;100.00;99724.63;5042690;28;20045;-52
2022/07/10 09:14:13;;;;;;;1999.90;999.90;;;;;;;16.94;100.00;99719.03;5042725;28;20407;-53
2022/07/10 09:16:58;;;;;;;1999.90;999.90;;;;;;;18.72;100.00;99707.28;5047085;28;20052;-51
2022/07/10 09:19:44;;;;;;;1999.90;999.90;;;;;;;19.80;100.00;99704.09;5049311;28;20056;-54
2022/07/10 09:22:30;;;;;;;1999.90;999.90;;;;;;;17.99;100.00;99696.50;5045269;28;20368;-52
2022/07/10 09:25:15;;;;;;;1999.90;999.90;;;;;;;17.13;100.00;99710.97;5045827;28;20045;-51
2022/07/10 09:28:05;;;;;;;1999.90;999.90;;;;;;;15.97;100.00;99715.94;5048440;28;20479;-52
2022/07/10 09:30:49;;;;;;;1999.90;999.90;;;;;;;16.02;100.00;99721.88;5048217;28;20472;-53
2022/07/10 09:33:35;;;;;;;1999.90;999.90;;;;;;;16.12;100.00;99715.19;5048611;28;20080;-53
2022/07/10 09:36:20;;;;;;;1999.90;999.90;;;;;;;15.78;100.00;99723.88;5046031;28;20099;-54
2022/07/10 09:39:05;;;;;;;1999.90;999.90;;;;;;;16.08;100.00;99713.63;5050119;28;20404;-51
2022/07/10 09:41:49;;;;;;;1999.90;999.90;;;;;;;16.10;100.00;99724.13;5044187;28;20515;-52
2022/07/10 09:44:34;;;;;;;1999.90;999.90;;;;;;;16.21;100.00;99718.31;5046281;28;20562;-54
2022/07/10 09:47:22;;;;;;;1999.90;999.90;;;;;;;16.58;100.00;99712.88;5044869;28;20053;-54
2022/07/10 09:50:19;;;;;;;1999.90;999.90;;;;;;;16.94;100.00;99717.22;5044756;28;20485;-53
2022/07/10 09:53:12;;;;;;;1999.90;999.90;;;;;;;17.75;100.00;99704.88;5044891;28;20060;-54
2022/07/10 09:55:58;;;;;;;1999.90;999.90;;;;;;;18.28;100.00;99715.16;5046799;28;20041;-51
2022/07/10 09:58:45;;;;;;;1999.90;999.90;;;;;;;17.94;100.00;99704.72;5048262;28;20091;-51
2022/07/10 10:01:30;;;;;;;1999.90;999.90;;;;;;;18.03;100.00;99705.13;5048591;28;20503;-53
2022/07/10 10:04:16;;;;;;;1999.90;999.90;;;;;;;18.59;100.00;99703.56;5046819;28;20056;-53
2022/07/10 10:07:02;;;;;;;1999.90;999.90;;;;;;;18.71;98.96;99707.31;5048188;28;20064;-52
2022/07/10 10:09:56;;;;;;;1999.90;999.90;;;;;;;19.33;99.91;99706.13;5047399;28;20049;-53
2022/07/10 10:12:52;;;;;;;1999.90;999.90;;;;;;;19.21;94.59;99706.91;5047607;28;20060;-54
2022/07/10 10:15:38;;;;;;;1999.90;999.90;;;;;;;19.34;98.07;99699.03;5044760;28;20083;-51
2022/07/10 10:18:26;;;;;;;1999.90;999.90;;;;;;;19.34;96.92;99697.22;5044429;28;20475;-53
2022/07/10 10:21:12;;;;;;;1999.90;999.90;;;;;;;18.97;99.97;99690.69;5047644;28;20099;-53
2022/07/10 10:23:58;;;;;;;1999.90;999.90;;;;;;;18.85;98.46;99689.66;5043633;28;20122;-52
2022/07/10 10:26:43;;;;;;;1999.90;999.90;;;;;;;19.37;98.15;99677.59;5044082;28;20048;-52
2022/07/10 10:29:29;;;;;;;1999.90;999.90;;;;;;;19.17;100.00;99688.59;5045154;28;20055;-53
2022/07/10 10:32:14;;;;;;;1999.90;999.90;;;;;;;18.53;100.00;99685.41;5044259;28;20128;-54
2022/07/10 10:34:59;;;;;;;1999.90;999.90;;;;;;;18.91;99.91;99686.63;5045908;28;20122;-53
2022/07/10 10:37:51;;;;;;;1999.90;999.90;;;;;;;19.50;100.00;99696.22;5045018;28;20041;-53
2022/07/10 10:40:36;;;;;;;1999.90;999.90;;;;;;;21.17;98.05;99680.59;5043211;28;20079;-54
2022/07/10 10:43:23;;;;;;;1999.90;999.90;;;;;;;20.95;93.52;99691.06;5043794;28;20080;-53
2022/07/10 10:46:25;;;;;;;1999.90;999.90;;;;;;;20.24;92.16;99692.31;5041611;28;20049;-53
2022/07/10 10:49:09;;;;;;;1999.90;999.90;;;;;;;20.15;91.59;99690.28;5041799;28;20087;-53
2022/07/10 10:52:04;;;;;;;1999.90;999.90;;;;;;;20.17;93.58;99678.59;5043557;28;20049;-52
2022/07/10 10:54:57;;;;;;;1999.90;999.90;;;;;;;19.85;93.00;99686.03;5046665;28;20194;-56
2022/07/10 10:57:47;;;;;;;1999.90;999.90;;;;;;;19.79;93.38;99675.78;5046693;28;20102;-53
2022/07/10 11:00:37;;;;;;;1999.90;999.90;;;;;;;19.49;95.58;99684.75;5048723;28;20534;-55
2022/07/10 11:03:26;;;;;;;1999.90;999.90;;;;;;;18.77;94.71;99691.06;5047037;28;20056;-53
2022/07/10 11:06:13;;;;;;;1999.90;999.90;;;;;;;18.42;96.19;99699.28;5044851;28;20056;-54
2022/07/10 11:09:20;;;;;;;1999.90;999.90;;;;;;;17.96;98.05;99708.09;5046572;28;20518;-54
2022/07/10 11:12:06;;;;;;;1999.90;999.90;;;;;;;17.80;99.83;99695.81;5045747;28;20381;-52
2022/07/10 11:14:52;;;;;;;1999.90;999.90;;;;;;;17.96;99.50;99699.31;5045844;28;20052;-53
2022/07/10 11:17:39;;;;;;;1999.90;999.90;;;;;;;17.53;99.73;99701.69;5044961;28;20063;-52
2022/07/10 11:20:23;;;;;;;1999.90;999.90;;;;;;;17.67;100.00;99701.78;5044417;28;20072;-54
2022/07/10 11:23:26;;;;;;;1999.90;999.90;;;;;;;17.89;100.00;99697.97;5047253;28;20116;-55
2022/07/10 11:26:20;;;;;;;1999.90;999.90;;;;;;;18.21;99.67;99701.41;5047967;28;20053;-54
2022/07/10 11:29:06;;;;;;;1999.90;999.90;;;;;;;18.24;96.92;99697.75;5044479;28;20068;-52
2022/07/10 11:31:54;;;;;;;1999.90;999.90;;;;;;;18.36;95.04;99697.88;5045571;28;20060;-54
2022/07/10 11:34:39;;;;;;;1999.90;999.90;;;;;;;17.46;92.41;99709.13;5043211;28;20076;-52
2022/07/10 11:37:28;;;;;;;1999.90;999.90;;;;;;;17.53;90.19;99712.28;5043886;28;20099;-54
2022/07/10 11:40:13;;;;;;;1999.90;999.90;;;;;;;17.52;90.39;99707.94;5042285;28;20396;-55
2022/07/10 11:42:59;;;;;;;1999.90;999.90;;;;;;;17.34;93.61;99717.72;5043420;28;20083;-55
2022/07/10 11:45:44;;;;;;;1999.90;999.90;;;;;;;16.86;95.89;99702.69;5043545;28;20492;-55
2022/07/10 11:48:29;;;;;;;1999.90;999.90;;;;;;;17.21;96.12;99709.59;5045412;28;20060;-54
2022/07/10 11:51:31;;;;;;;1999.90;999.90;;;;;;;17.36;100.00;99712.38;5043954;28;20122;-54
2022/07/10 11:54:18;;;;;;;1999.90;999.90;;;;;;;17.00;100.00;99708.97;5043159;28;20044;-54
2022/07/10 11:57:07;;;;;;;1999.90;999.90;;;;;;;17.21;100.00;99711.41;5041606;28;20052;-52
2022/07/10 11:59:52;;;;;;;1999.90;999.90;;;;;;;17.09;100.00;99714.69;5044830;28;20052;-52
2022/07/10 12:02:36;;;;;;;1999.90;999.90;;;;;;;17.57;100.00;99718.28;5039642;28;20055;-54
2022/07/10 12:05:34;;;;;;;1999.90;999.90;;;;;;;17.17;100.00;99721.28;5043798;28;20098;-53
2022/07/10 12:08:19;;;;;;;1999.90;999.90;;;;;;;17.35;100.00;99713.28;5043100;28;20048;-52
2022/07/10 12:11:13;;;;;;;1999.90;999.90;;;;;;;17.55;100.00;99725.44;5044231;28;20386;-55
2022/07/10 12:14:12;;;;;;;1999.90;999.90;;;;;;;17.69;100.00;99714.94;5042703;28;20395;-53
2022/07/10 12:16:58;;;;;;;1999.90;999.90;;;;;;;18.14;100.00;99708.88;5040615;28;20490;-53
2022/07/10 12:19:43;;;;;;;1999.90;999.90;;;;;;;18.01;98.46;99707.88;5043225;28;20064;-53
2022/07/10 12:22:27;;;;;;;1999.90;999.90;;;;;;;19.08;100.00;99704.16;5041421;28;20056;-52